createdAt,value
2018-05-07T00:00:15.453Z,17.20
2018-05-07T00:02:44.339Z,17.20
2018-05-07T00:05:12.499Z,17.10
2018-05-07T00:07:40.607Z,17.10
2018-05-07T00:10:09.502Z,17.10
2018-05-07T00:12:38.380Z,17.00
2018-05-07T00:15:06.509Z,17.00
2018-05-07T00:17:34.653Z,16.90
2018-05-07T00:20:03.537Z,16.90
2018-05-07T00:22:32.416Z,16.90
2018-05-07T00:25:00.560Z,16.90
2018-05-07T00:27:28.674Z,16.90
2018-05-07T00:29:56.800Z,16.90
2018-05-07T00:32:24.916Z,16.80
2018-05-07T00:34:53.061Z,16.80
2018-05-07T00:37:21.198Z,16.70
2018-05-07T00:39:50.082Z,16.70
2018-05-07T00:42:18.202Z,16.60
2018-05-07T00:44:46.356Z,16.60
2018-05-07T00:47:15.232Z,16.60
2018-05-07T00:49:44.179Z,16.60
2018-05-07T00:52:13.041Z,16.60
2018-05-07T00:54:59.817Z,16.60
2018-05-07T00:57:27.964Z,16.50
2018-05-07T00:59:56.082Z,16.50
2018-05-07T01:02:24.194Z,16.50
2018-05-07T01:04:52.359Z,16.40
2018-05-07T01:07:21.228Z,16.40
2018-05-07T01:09:49.374Z,16.40
2018-05-07T01:12:17.495Z,16.30
2018-05-07T01:14:45.607Z,16.30
2018-05-07T01:17:13.747Z,16.30
2018-05-07T01:19:42.630Z,16.30
2018-05-07T01:22:10.774Z,16.30
2018-05-07T01:24:38.884Z,16.30
2018-05-07T01:27:06.990Z,16.30
2018-05-07T01:29:35.117Z,16.30
2018-05-07T01:32:03.234Z,16.30
2018-05-07T01:34:32.137Z,16.20
2018-05-07T01:37:01.009Z,16.20
2018-05-07T01:39:29.125Z,16.20
2018-05-07T01:41:57.260Z,16.10
2018-05-07T01:44:25.372Z,16.10
2018-05-07T01:46:53.481Z,16.10
2018-05-07T01:49:21.618Z,16.10
2018-05-07T01:51:50.596Z,16.10
2018-05-07T01:54:18.717Z,16.00
2018-05-07T01:56:46.839Z,16.00
2018-05-07T01:59:14.961Z,16.00
2018-05-07T02:01:43.097Z,16.00
2018-05-07T02:04:11.217Z,16.00
2018-05-07T02:06:39.337Z,16.00
2018-05-07T02:09:07.455Z,15.90
2018-05-07T02:11:36.327Z,15.90
2018-05-07T02:14:04.471Z,15.90
2018-05-07T02:16:32.591Z,15.80
2018-05-07T02:19:01.476Z,15.80
2018-05-07T02:21:29.605Z,15.80
2018-05-07T02:23:57.713Z,15.70
2018-05-07T02:26:25.857Z,15.70
2018-05-07T02:28:53.981Z,15.60
2018-05-07T02:31:22.127Z,15.60
2018-05-07T02:33:50.227Z,15.50
2018-05-07T02:36:18.346Z,15.40
2018-05-07T02:38:46.499Z,15.40
2018-05-07T02:41:14.598Z,15.40
2018-05-07T02:43:43.476Z,15.40
2018-05-07T02:46:12.389Z,15.30
2018-05-07T02:48:41.261Z,15.30
2018-05-07T02:51:10.178Z,15.30
2018-05-07T02:53:38.300Z,15.30
2018-05-07T02:56:06.414Z,15.30
2018-05-07T02:58:35.341Z,15.30
2018-05-07T03:01:03.450Z,15.30
2018-05-07T03:03:31.569Z,15.30
2018-05-07T03:06:00.479Z,15.30
2018-05-07T03:08:28.593Z,15.30
2018-05-07T03:10:56.707Z,15.30
2018-05-07T03:13:24.825Z,15.30
2018-05-07T03:15:52.924Z,15.30
2018-05-07T03:18:21.109Z,15.20
2018-05-07T03:20:49.193Z,15.20
2018-05-07T03:23:17.330Z,15.10
2018-05-07T03:25:45.444Z,15.10
2018-05-07T03:28:13.565Z,15.00
2018-05-07T03:30:42.461Z,15.00
2018-05-07T03:33:11.335Z,14.90
2018-05-07T03:35:39.439Z,14.90
2018-05-07T03:38:07.636Z,14.90
2018-05-07T03:40:35.789Z,14.90
2018-05-07T03:43:03.879Z,14.90
2018-05-07T03:45:32.018Z,14.80
2018-05-07T03:48:00.130Z,14.80
2018-05-07T03:50:28.262Z,14.80
2018-05-07T03:52:56.406Z,14.80
2018-05-07T03:55:24.521Z,14.80
2018-05-07T03:57:52.646Z,14.80
2018-05-07T04:00:20.750Z,14.80
2018-05-07T04:02:48.886Z,14.90
2018-05-07T04:05:17.831Z,14.90
2018-05-07T04:07:45.963Z,14.90
2018-05-07T04:10:14.850Z,14.90
2018-05-07T04:12:43.727Z,14.90
2018-05-07T04:15:11.943Z,15.00
2018-05-07T04:17:58.084Z,15.00
2018-05-07T04:20:44.212Z,14.90
2018-05-07T04:23:30.317Z,14.90
2018-05-07T04:25:59.194Z,14.80
2018-05-07T04:28:27.321Z,14.80
2018-05-07T04:30:55.442Z,14.90
2018-05-07T04:33:24.333Z,14.90
2018-05-07T04:35:53.210Z,14.90
2018-05-07T04:38:21.345Z,14.80
2018-05-07T04:40:49.457Z,14.90
2018-05-07T04:43:17.572Z,14.90
2018-05-07T04:45:45.739Z,14.90
2018-05-07T04:48:14.622Z,14.90
2018-05-07T04:50:43.517Z,14.90
2018-05-07T04:53:12.421Z,15.00
2018-05-07T04:55:41.294Z,15.10
2018-05-07T04:58:09.400Z,15.20
2018-05-07T05:00:37.514Z,15.20
2018-05-07T05:03:05.624Z,15.30
2018-05-07T05:05:34.545Z,15.30
2018-05-07T05:08:03.416Z,15.40
2018-05-07T05:10:31.606Z,15.50
2018-05-07T05:13:00.498Z,15.60
2018-05-07T05:15:29.371Z,15.70
2018-05-07T05:17:57.489Z,15.80
2018-05-07T05:20:25.653Z,15.90
2018-05-07T05:22:54.517Z,16.00
2018-05-07T05:25:22.629Z,16.00
2018-05-07T05:27:51.500Z,16.10
2018-05-07T05:30:19.622Z,16.10
2018-05-07T05:32:47.730Z,16.20
2018-05-07T05:35:15.862Z,16.30
2018-05-07T05:37:44.743Z,16.40
2018-05-07T05:40:13.637Z,16.50
2018-05-07T05:42:42.515Z,16.60
2018-05-07T05:45:10.640Z,16.70
2018-05-07T05:47:38.762Z,16.80
2018-05-07T05:50:06.905Z,16.90
2018-05-07T05:52:35.033Z,17.00
2018-05-07T05:55:03.964Z,17.10
2018-05-07T05:57:32.067Z,17.20
2018-05-07T06:00:00.176Z,17.30
2018-05-07T06:02:28.281Z,17.50
2018-05-07T06:04:57.163Z,17.60
2018-05-07T06:07:26.062Z,17.70
2018-05-07T06:09:54.945Z,17.80
2018-05-07T06:12:23.044Z,17.90
2018-05-07T06:14:51.279Z,18.00
2018-05-07T06:17:19.279Z,18.10
2018-05-07T06:19:48.289Z,18.20
2018-05-07T06:22:16.407Z,18.30
2018-05-07T06:24:44.530Z,18.40
2018-05-07T06:27:12.698Z,18.50
2018-05-07T06:29:40.747Z,18.60
2018-05-07T06:32:08.860Z,18.70
2018-05-07T06:34:36.982Z,18.80
2018-05-07T06:37:05.168Z,18.90
2018-05-07T06:39:33.285Z,19.00
2018-05-07T06:42:01.392Z,19.10
2018-05-07T06:44:29.519Z,19.30
2018-05-07T06:46:57.638Z,19.30
2018-05-07T06:49:25.767Z,19.50
2018-05-07T06:51:53.874Z,19.60
2018-05-07T06:54:22.791Z,19.70
2018-05-07T06:56:51.669Z,19.80
2018-05-07T06:59:20.554Z,19.90
2018-05-07T07:01:48.696Z,20.00
2018-05-07T07:04:16.820Z,20.20
2018-05-07T07:06:45.705Z,20.30
2018-05-07T07:09:13.813Z,20.50
2018-05-07T07:11:41.936Z,20.70
2018-05-07T07:14:10.038Z,20.80
2018-05-07T07:16:38.168Z,20.90
2018-05-07T07:19:06.280Z,21.00
2018-05-07T07:21:34.394Z,21.10
2018-05-07T07:24:03.307Z,21.20
2018-05-07T07:26:31.456Z,21.30
2018-05-07T07:29:00.342Z,21.40
2018-05-07T07:31:29.233Z,21.50
2018-05-07T07:33:57.369Z,21.70
2018-05-07T07:36:25.489Z,21.80
2018-05-07T07:38:53.599Z,21.90
2018-05-07T07:41:21.842Z,22.00
2018-05-07T07:43:49.974Z,22.10
2018-05-07T07:46:18.097Z,22.20
2018-05-07T07:48:46.222Z,22.30
2018-05-07T07:51:14.359Z,22.30
2018-05-07T07:53:42.555Z,22.40
2018-05-07T07:56:10.622Z,22.50
2018-05-07T07:58:39.501Z,22.50
2018-05-07T08:01:07.624Z,22.60
2018-05-07T08:03:35.741Z,22.80
2018-05-07T08:06:03.858Z,22.70
2018-05-07T08:08:32.727Z,22.80
2018-05-07T08:11:00.865Z,22.90
2018-05-07T08:13:28.971Z,23.00
2018-05-07T08:15:57.102Z,23.10
2018-05-07T08:18:25.293Z,23.10
2018-05-07T08:20:53.369Z,23.10
2018-05-07T08:23:21.489Z,23.20
2018-05-07T08:25:49.632Z,23.30
2018-05-07T08:28:17.738Z,23.40
2018-05-07T08:30:46.612Z,23.40
2018-05-07T08:33:14.736Z,23.50
2018-05-07T08:35:43.615Z,23.50
2018-05-07T08:38:12.514Z,23.60
2018-05-07T08:40:40.623Z,23.80
2018-05-07T08:43:08.736Z,23.90
2018-05-07T08:45:36.846Z,24.00
2018-05-07T08:48:05.741Z,24.10
2018-05-07T08:50:33.845Z,24.10
2018-05-07T08:53:02.001Z,24.20
2018-05-07T08:55:30.080Z,24.30
2018-05-07T08:57:58.960Z,24.40
2018-05-07T09:00:27.069Z,24.40
2018-05-07T09:02:55.185Z,24.40
2018-05-07T09:05:23.604Z,24.30
2018-05-07T09:07:51.731Z,24.30
2018-05-07T09:10:19.847Z,24.30
2018-05-07T09:12:47.966Z,24.20
2018-05-07T09:15:16.078Z,24.30
2018-05-07T09:17:44.192Z,24.20
2018-05-07T09:20:13.069Z,24.20
2018-05-07T09:22:41.186Z,24.20
2018-05-07T09:25:09.306Z,24.20
2018-05-07T09:27:37.422Z,24.10
2018-05-07T09:30:06.296Z,24.10
2018-05-07T09:32:34.415Z,24.00
2018-05-07T09:35:02.516Z,23.90
2018-05-07T09:37:30.645Z,23.80
2018-05-07T09:39:59.534Z,23.80
2018-05-07T09:42:27.654Z,23.70
2018-05-07T09:44:55.766Z,23.70
2018-05-07T09:47:24.005Z,23.70
2018-05-07T09:49:52.123Z,23.70
2018-05-07T09:52:20.255Z,23.70
2018-05-07T09:54:48.363Z,23.70
2018-05-07T09:57:16.472Z,23.60
2018-05-07T09:59:44.590Z,23.60
2018-05-07T10:02:12.701Z,23.50
2018-05-07T10:04:40.837Z,23.50
2018-05-07T10:07:08.948Z,23.50
2018-05-07T10:09:37.072Z,23.50
2018-05-07T10:12:05.952Z,23.50
2018-05-07T10:14:34.076Z,23.50
2018-05-07T10:17:02.269Z,23.50
2018-05-07T10:19:30.309Z,23.50
2018-05-07T10:21:58.432Z,23.50
2018-05-07T10:24:26.572Z,23.40
2018-05-07T10:26:54.711Z,23.50
2018-05-07T10:29:22.839Z,23.50
2018-05-07T10:31:50.949Z,23.50
2018-05-07T10:34:19.069Z,23.40
2018-05-07T10:36:47.987Z,23.50
2018-05-07T10:39:16.113Z,23.50
2018-05-07T10:41:44.211Z,23.50
2018-05-07T10:44:13.086Z,23.40
2018-05-07T10:46:41.197Z,23.40
2018-05-07T10:49:09.407Z,23.50
2018-05-07T10:51:37.464Z,23.50
2018-05-07T10:54:05.588Z,23.50
2018-05-07T10:56:33.705Z,23.50
2018-05-07T10:59:01.834Z,23.50
2018-05-07T11:01:29.972Z,23.50
2018-05-07T11:03:58.086Z,23.40
2018-05-07T11:06:26.197Z,23.30
2018-05-07T11:08:55.098Z,23.40
2018-05-07T11:11:23.981Z,23.40
2018-05-07T11:13:52.096Z,23.50
2018-05-07T11:16:20.208Z,23.50
2018-05-07T11:18:48.329Z,23.50
2018-05-07T11:21:17.209Z,23.50
2018-05-07T11:23:46.102Z,23.60
2018-05-07T11:26:15.013Z,23.60
2018-05-07T11:28:43.911Z,23.50
2018-05-07T11:31:12.903Z,23.60
2018-05-07T11:33:40.967Z,23.60
2018-05-07T11:36:09.849Z,23.60
2018-05-07T11:38:37.940Z,23.70
2018-05-07T11:41:06.828Z,23.70
2018-05-07T11:43:34.935Z,23.70
2018-05-07T11:46:03.053Z,23.70
2018-05-07T11:48:31.161Z,23.70
2018-05-07T11:51:00.176Z,23.70
2018-05-07T11:53:29.053Z,23.70
2018-05-07T11:55:57.166Z,23.70
2018-05-07T11:58:25.316Z,23.70
2018-05-07T12:00:53.458Z,23.80
2018-05-07T12:03:21.577Z,23.80
2018-05-07T12:05:50.493Z,23.80
2018-05-07T12:08:18.597Z,23.80
2018-05-07T12:10:46.719Z,23.80
2018-05-07T12:13:15.602Z,23.80
2018-05-07T12:15:43.735Z,23.80
2018-05-07T12:18:11.848Z,23.80
2018-05-07T12:20:39.988Z,23.90
2018-05-07T12:23:08.170Z,23.90
2018-05-07T12:25:36.225Z,23.90
2018-05-07T12:28:04.330Z,23.90
2018-05-07T12:30:32.469Z,24.00
2018-05-07T12:33:00.589Z,23.90
2018-05-07T12:35:28.718Z,24.00
2018-05-07T12:37:57.586Z,24.00
2018-05-07T12:40:25.706Z,24.00
2018-05-07T12:42:53.840Z,24.00
2018-05-07T12:45:21.974Z,24.10
2018-05-07T12:47:50.105Z,24.10
2018-05-07T12:50:18.238Z,24.10
2018-05-07T12:52:46.369Z,24.10
2018-05-07T12:55:15.255Z,24.20
2018-05-07T12:57:43.380Z,24.20
2018-05-07T13:00:11.514Z,24.20
2018-05-07T13:02:40.402Z,24.10
2018-05-07T13:05:08.561Z,24.10
2018-05-07T13:07:36.685Z,24.10
2018-05-07T13:10:04.795Z,24.20
2018-05-07T13:12:32.920Z,24.20
2018-05-07T13:15:01.848Z,24.20
2018-05-07T13:17:29.968Z,24.20
2018-05-07T13:19:58.073Z,24.30
2018-05-07T13:22:26.957Z,24.30
2018-05-07T13:24:55.091Z,24.30
2018-05-07T13:27:23.209Z,24.30
2018-05-07T13:29:51.341Z,24.40
2018-05-07T13:32:19.513Z,24.40
2018-05-07T13:34:47.680Z,24.40
2018-05-07T13:37:15.798Z,24.40
2018-05-07T13:39:43.911Z,24.40
2018-05-07T13:42:12.800Z,24.40
2018-05-07T13:44:41.682Z,24.40
2018-05-07T13:47:09.814Z,24.40
2018-05-07T13:49:37.918Z,24.40
2018-05-07T13:52:06.030Z,24.40
2018-05-07T13:54:34.909Z,24.50
2018-05-07T13:57:03.042Z,24.50
2018-05-07T13:59:31.159Z,24.50
2018-05-07T14:01:59.290Z,24.60
2018-05-07T14:04:27.393Z,24.60
2018-05-07T14:06:55.520Z,24.60
2018-05-07T14:09:24.413Z,24.60
2018-05-07T14:11:53.298Z,24.70
2018-05-07T14:14:22.193Z,24.70
2018-05-07T14:19:17.656Z,24.70
2018-05-07T14:21:45.778Z,24.70
2018-05-07T14:24:13.893Z,24.80
2018-05-07T14:26:42.785Z,24.60
2018-05-07T14:29:11.696Z,24.70
2018-05-07T14:31:39.906Z,24.60
2018-05-07T14:34:08.010Z,24.70
2018-05-07T14:36:36.162Z,24.70
2018-05-07T14:39:04.281Z,24.80
2018-05-07T14:41:32.402Z,24.80
2018-05-07T14:44:00.524Z,24.80
2018-05-07T14:46:28.628Z,24.80
2018-05-07T14:48:57.513Z,24.80
2018-05-07T14:51:26.393Z,24.80
2018-05-07T14:53:54.545Z,24.90
2018-05-07T14:56:22.764Z,24.80
2018-05-07T14:58:51.659Z,24.90
2018-05-07T15:01:20.523Z,24.90
2018-05-07T15:03:48.835Z,24.90
2018-05-07T15:06:17.729Z,24.90
2018-05-07T15:08:46.664Z,24.80
2018-05-07T15:11:14.938Z,24.90
2018-05-07T15:13:43.121Z,24.90
2018-05-07T15:16:11.283Z,24.90
2018-05-07T15:18:39.416Z,24.90
2018-05-07T15:21:07.722Z,24.90
2018-05-07T15:23:35.899Z,25.00
2018-05-07T15:26:04.769Z,25.00
2018-05-07T15:28:32.908Z,25.00
2018-05-07T15:31:02.019Z,25.00
2018-05-07T15:33:30.138Z,25.10
2018-05-07T15:35:58.251Z,25.00
2018-05-07T15:38:26.370Z,25.00
2018-05-07T15:40:54.495Z,25.10
2018-05-07T15:43:22.628Z,25.00
2018-05-07T15:45:50.737Z,25.00
2018-05-07T15:48:19.610Z,25.10
2018-05-07T15:50:47.711Z,25.00
2018-05-07T15:53:16.650Z,25.10
2018-05-07T15:55:44.832Z,25.10
2018-05-07T15:58:12.960Z,25.20
2018-05-07T16:00:42.732Z,25.20
2018-05-07T16:03:10.972Z,25.20
2018-05-07T16:05:39.126Z,25.20
2018-05-07T16:08:08.023Z,25.10
2018-05-07T16:10:36.905Z,25.10
2018-05-07T16:13:05.050Z,25.10
2018-05-07T16:15:33.205Z,25.20
2018-05-07T16:18:02.044Z,25.20
2018-05-07T16:20:30.159Z,25.20
2018-05-07T16:22:59.021Z,25.20
2018-05-07T16:25:27.150Z,25.20
2018-05-07T16:27:55.254Z,25.20
2018-05-07T16:30:24.139Z,25.20
2018-05-07T16:32:52.294Z,25.20
2018-05-07T16:35:20.411Z,25.20
2018-05-07T16:37:48.513Z,25.20
2018-05-07T16:40:16.643Z,25.10
2018-05-07T16:42:44.768Z,25.10
2018-05-07T16:45:12.898Z,25.10
2018-05-07T16:47:41.012Z,25.10
2018-05-07T16:50:09.139Z,25.10
2018-05-07T16:52:37.333Z,25.10
2018-05-07T16:55:05.466Z,25.10
2018-05-07T16:57:33.529Z,25.10
2018-05-07T17:00:01.652Z,25.20
2018-05-07T17:02:29.766Z,25.20
2018-05-07T17:04:57.900Z,25.20
2018-05-07T17:07:26.014Z,25.20
2018-05-07T17:09:54.140Z,25.20
2018-05-07T17:12:23.047Z,25.20
2018-05-07T17:14:51.189Z,25.20
2018-05-07T17:17:19.323Z,25.20
2018-05-07T17:19:47.464Z,25.20
2018-05-07T17:22:15.594Z,25.20
2018-05-07T17:24:43.715Z,25.20
2018-05-07T17:27:12.590Z,25.20
2018-05-07T17:29:40.701Z,25.20
2018-05-07T17:32:09.630Z,25.20
2018-05-07T17:34:37.775Z,25.20
2018-05-07T17:37:05.894Z,25.20
2018-05-07T17:39:34.042Z,25.20
2018-05-07T17:42:02.265Z,25.10
2018-05-07T17:44:48.974Z,25.10
2018-05-07T17:47:34.957Z,25.10
2018-05-07T17:50:03.105Z,25.00
2018-05-07T17:52:31.232Z,25.00
2018-05-07T17:55:00.103Z,25.00
2018-05-07T17:57:28.239Z,25.00
2018-05-07T17:59:56.383Z,25.00
2018-05-07T18:02:25.256Z,25.00
2018-05-07T18:04:53.396Z,24.90
2018-05-07T18:07:21.531Z,24.90
2018-05-07T18:09:50.414Z,24.90
2018-05-07T18:12:18.509Z,24.90
2018-05-07T18:14:47.423Z,24.90
2018-05-07T18:17:15.569Z,24.90
2018-05-07T18:19:44.445Z,24.90
2018-05-07T18:22:12.588Z,24.80
2018-05-07T18:24:40.761Z,24.80
2018-05-07T18:27:08.856Z,24.80
2018-05-07T18:29:36.993Z,24.80
2018-05-07T18:32:05.107Z,24.70
2018-05-07T18:34:33.245Z,24.70
2018-05-07T18:37:02.115Z,24.70
2018-05-07T18:39:30.237Z,24.70
2018-05-07T18:41:58.354Z,24.70
2018-05-07T18:44:26.519Z,24.70
2018-05-07T18:46:54.670Z,24.60
2018-05-07T18:49:22.776Z,24.60
2018-05-07T18:51:50.886Z,24.60
2018-05-07T18:54:19.778Z,24.50
2018-05-07T18:56:47.913Z,24.50
2018-05-07T18:59:16.077Z,24.50
2018-05-07T19:01:44.212Z,24.50
2018-05-07T19:04:12.308Z,24.40
2018-05-07T19:06:40.458Z,24.30
2018-05-07T19:09:08.561Z,24.30
2018-05-07T19:11:37.457Z,24.30
2018-05-07T19:14:06.322Z,24.20
2018-05-07T19:16:34.445Z,24.20
2018-05-07T19:19:02.600Z,24.10
2018-05-07T19:21:31.493Z,24.10
2018-05-07T19:24:00.396Z,24.10
2018-05-07T19:26:29.260Z,24.00
2018-05-07T19:28:57.380Z,24.00
2018-05-07T19:31:25.514Z,23.90
2018-05-07T19:33:54.350Z,23.90
2018-05-07T19:36:22.465Z,23.80
2018-05-07T19:38:50.617Z,23.80
2018-05-07T19:41:18.755Z,23.70
2018-05-07T19:43:46.881Z,23.70
2018-05-07T19:46:15.012Z,23.60
2018-05-07T19:48:43.886Z,23.60
2018-05-07T19:51:11.994Z,23.60
2018-05-07T19:53:40.873Z,23.50
2018-05-07T19:56:08.999Z,23.50
2018-05-07T19:58:37.109Z,23.40
2018-05-07T20:01:05.224Z,23.40
2018-05-07T20:03:34.246Z,23.30
2018-05-07T20:06:02.402Z,23.30
2018-05-07T20:08:30.522Z,23.20
2018-05-07T20:10:58.626Z,23.20
2018-05-07T20:13:26.740Z,23.10
2018-05-07T20:15:54.857Z,23.00
2018-05-07T20:18:23.036Z,23.00
2018-05-07T20:20:51.178Z,22.90
2018-05-07T20:23:19.294Z,22.90
2018-05-07T20:25:47.399Z,22.80
2018-05-07T20:28:15.537Z,22.70
2018-05-07T20:30:43.654Z,22.70
2018-05-07T20:33:12.546Z,22.60
2018-05-07T20:35:41.425Z,22.60
2018-05-07T20:38:09.542Z,22.50
2018-05-07T20:40:37.649Z,22.50
2018-05-07T20:43:05.761Z,22.40
2018-05-07T20:45:33.900Z,22.40
2018-05-07T20:48:02.134Z,22.30
2018-05-07T20:50:30.142Z,22.30
2018-05-07T20:52:58.245Z,22.20
2018-05-07T20:55:26.383Z,22.20
2018-05-07T20:57:54.497Z,22.20
2018-05-07T21:00:22.628Z,22.10
2018-05-07T21:02:51.515Z,22.10
2018-05-07T21:05:20.391Z,22.00
2018-05-07T21:07:48.517Z,22.00
2018-05-07T21:10:16.625Z,21.90
2018-05-07T21:12:44.737Z,21.90
2018-05-07T21:15:12.849Z,21.80
2018-05-07T21:17:41.008Z,21.80
2018-05-07T21:20:09.875Z,21.70
2018-05-07T21:22:38.032Z,21.70
2018-05-07T21:25:06.130Z,21.60
2018-05-07T21:27:34.255Z,21.60
2018-05-07T21:30:02.375Z,21.50
2018-05-07T21:32:30.489Z,21.50
2018-05-07T21:34:59.364Z,21.50
2018-05-07T21:37:27.466Z,21.40
2018-05-07T21:39:55.595Z,21.40
2018-05-07T21:42:24.469Z,21.40
2018-05-07T21:44:52.585Z,21.30
2018-05-07T21:47:20.697Z,21.30
2018-05-07T21:49:48.829Z,21.20
2018-05-07T21:52:16.929Z,21.20
2018-05-07T21:54:45.808Z,21.10
2018-05-07T21:57:13.934Z,21.00
2018-05-07T21:59:42.081Z,21.00
2018-05-07T22:02:11.009Z,21.00
2018-05-07T22:04:39.845Z,20.90
2018-05-07T22:07:07.957Z,20.90
2018-05-07T22:09:36.854Z,20.80
2018-05-07T22:12:05.713Z,20.80
2018-05-07T22:14:33.826Z,20.80
2018-05-07T22:17:01.922Z,20.70
2018-05-07T22:19:30.050Z,20.70
2018-05-07T22:21:58.150Z,20.60
2018-05-07T22:24:27.034Z,20.60
2018-05-07T22:26:55.912Z,20.60
2018-05-07T22:29:24.006Z,20.50
2018-05-07T22:31:52.876Z,20.50
2018-05-07T22:34:20.983Z,20.40
2018-05-07T22:36:49.860Z,20.40
2018-05-07T22:39:17.967Z,20.40
2018-05-07T22:41:46.137Z,20.30
2018-05-07T22:44:15.005Z,20.30
2018-05-07T22:46:43.133Z,20.30
2018-05-07T22:49:11.308Z,20.20
2018-05-07T22:51:39.410Z,20.20
2018-05-07T22:54:07.517Z,20.20
2018-05-07T22:56:35.628Z,20.20
2018-05-07T22:59:03.751Z,20.10
2018-05-07T23:01:31.854Z,20.10
2018-05-07T23:03:59.969Z,20.10
2018-05-07T23:06:28.077Z,20.10
2018-05-07T23:08:56.185Z,20.00
2018-05-07T23:11:25.070Z,20.00
2018-05-07T23:13:53.190Z,20.00
2018-05-07T23:16:21.324Z,20.00
2018-05-07T23:18:49.550Z,20.00
2018-05-07T23:21:17.664Z,20.00
2018-05-07T23:23:45.762Z,19.90
2018-05-07T23:26:13.906Z,19.90
2018-05-07T23:28:42.023Z,19.90
2018-05-07T23:31:10.906Z,19.80
2018-05-07T23:33:39.030Z,19.80
2018-05-07T23:36:07.135Z,19.80
2018-05-07T23:38:35.252Z,19.80
2018-05-07T23:41:04.179Z,19.70
2018-05-07T23:43:32.292Z,19.70
2018-05-07T23:46:00.411Z,19.70
2018-05-07T23:48:29.297Z,19.70
2018-05-07T23:50:58.225Z,19.60
2018-05-07T23:53:26.401Z,19.60
2018-05-07T23:55:54.501Z,19.60
2018-05-07T23:58:22.604Z,19.60
